sensor_id;sensor_type;location;lat;lon;timestamp;P1;durP1;ratioP1;P2;durP2;ratioP2
6997;SDS011;3539;47.982;12.238;2022-07-01T00:00:36;4.53;;;4.13;;
6997;SDS011;3539;47.982;12.238;2022-07-01T00:03:03;5.13;;;4.63;;
6997;SDS011;3539;47.982;12.238;2022-07-01T00:05:30;5.23;;;4.20;;
6997;SDS011;3539;47.982;12.238;2022-07-01T00:07:57;5.10;;;3.87;;
6997;SDS011;3539;47.982;12.238;2022-07-01T00:10:23;3.90;;;3.50;;
6997;SDS011;3539;47.982;12.238;2022-07-01T00:12:52;5.43;;;3.70;;
6997;SDS011;3539;47.982;12.238;2022-07-01T00:15:19;4.90;;;4.00;;
6997;SDS011;3539;47.982;12.238;2022-07-01T00:17:47;3.50;;;3.10;;
6997;SDS011;3539;47.982;12.238;2022-07-01T00:20:13;4.40;;;3.30;;
6997;SDS011;3539;47.982;12.238;2022-07-01T00:22:40;4.00;;;3.13;;
6997;SDS011;3539;47.982;12.238;2022-07-01T00:25:08;4.37;;;3.33;;
6997;SDS011;3539;47.982;12.238;2022-07-01T00:27:36;4.77;;;2.83;;
6997;SDS011;3539;47.982;12.238;2022-07-01T00:30:05;4.10;;;3.17;;
6997;SDS011;3539;47.982;12.238;2022-07-01T00:32:33;3.53;;;3.00;;
6997;SDS011;3539;47.982;12.238;2022-07-01T00:34:59;4.20;;;3.20;;
6997;SDS011;3539;47.982;12.238;2022-07-01T00:37:26;5.20;;;3.30;;
6997;SDS011;3539;47.982;12.238;2022-07-01T00:39:53;4.63;;;3.40;;
6997;SDS011;3539;47.982;12.238;2022-07-01T00:42:19;4.30;;;3.27;;
6997;SDS011;3539;47.982;12.238;2022-07-01T00:44:46;4.13;;;3.40;;
6997;SDS011;3539;47.982;12.238;2022-07-01T00:47:14;5.10;;;3.13;;
6997;SDS011;3539;47.982;12.238;2022-07-01T00:49:41;4.47;;;3.20;;
6997;SDS011;3539;47.982;12.238;2022-07-01T00:52:09;4.10;;;3.33;;
6997;SDS011;3539;47.982;12.238;2022-07-01T00:54:36;4.27;;;3.17;;
6997;SDS011;3539;47.982;12.238;2022-07-01T00:57:05;3.93;;;3.60;;
6997;SDS011;3539;47.982;12.238;2022-07-01T00:59:33;4.00;;;3.60;;
6997;SDS011;3539;47.982;12.238;2022-07-01T01:02:01;4.00;;;3.60;;
6997;SDS011;3539;47.982;12.238;2022-07-01T01:04:29;5.77;;;3.93;;
6997;SDS011;3539;47.982;12.238;2022-07-01T01:06:57;5.27;;;3.70;;
6997;SDS011;3539;47.982;12.238;2022-07-01T01:09:24;5.80;;;4.40;;
6997;SDS011;3539;47.982;12.238;2022-07-01T01:11:51;5.73;;;4.20;;
6997;SDS011;3539;47.982;12.238;2022-07-01T01:14:18;4.30;;;3.90;;
6997;SDS011;3539;47.982;12.238;2022-07-01T01:16:46;6.30;;;4.00;;
6997;SDS011;3539;47.982;12.238;2022-07-01T01:19:13;8.07;;;3.87;;
6997;SDS011;3539;47.982;12.238;2022-07-01T01:21:41;4.83;;;4.03;;
6997;SDS011;3539;47.982;12.238;2022-07-01T01:24:07;4.90;;;3.67;;
6997;SDS011;3539;47.982;12.238;2022-07-01T01:26:34;5.17;;;3.70;;
6997;SDS011;3539;47.982;12.238;2022-07-01T01:29:03;3.83;;;3.53;;
6997;SDS011;3539;47.982;12.238;2022-07-01T01:31:32;5.13;;;4.03;;
6997;SDS011;3539;47.982;12.238;2022-07-01T01:33:59;4.90;;;3.97;;
6997;SDS011;3539;47.982;12.238;2022-07-01T01:36:26;5.17;;;4.33;;
6997;SDS011;3539;47.982;12.238;2022-07-01T01:38:54;6.37;;;4.00;;
6997;SDS011;3539;47.982;12.238;2022-07-01T01:41:22;5.17;;;3.60;;
6997;SDS011;3539;47.982;12.238;2022-07-01T01:43:49;4.50;;;3.70;;
6997;SDS011;3539;47.982;12.238;2022-07-01T01:46:16;6.67;;;3.80;;
6997;SDS011;3539;47.982;12.238;2022-07-01T01:48:42;3.90;;;3.50;;
6997;SDS011;3539;47.982;12.238;2022-07-01T01:51:09;4.13;;;3.73;;
6997;SDS011;3539;47.982;12.238;2022-07-01T01:53:36;4.03;;;3.63;;
6997;SDS011;3539;47.982;12.238;2022-07-01T01:56:04;7.13;;;4.03;;
6997;SDS011;3539;47.982;12.238;2022-07-01T01:58:31;6.97;;;3.60;;
6997;SDS011;3539;47.982;12.238;2022-07-01T02:00:58;4.77;;;3.40;;
6997;SDS011;3539;47.982;12.238;2022-07-01T02:03:25;3.90;;;3.47;;
6997;SDS011;3539;47.982;12.238;2022-07-01T02:05:51;4.27;;;3.37;;
6997;SDS011;3539;47.982;12.238;2022-07-01T02:08:18;6.33;;;3.40;;
6997;SDS011;3539;47.982;12.238;2022-07-01T02:10:45;3.63;;;3.03;;
6997;SDS011;3539;47.982;12.238;2022-07-01T02:13:13;4.93;;;2.97;;
6997;SDS011;3539;47.982;12.238;2022-07-01T02:15:40;5.47;;;3.10;;
6997;SDS011;3539;47.982;12.238;2022-07-01T02:18:06;7.37;;;2.93;;
6997;SDS011;3539;47.982;12.238;2022-07-01T02:20:33;3.43;;;3.13;;
6997;SDS011;3539;47.982;12.238;2022-07-01T02:23:00;3.37;;;2.90;;
6997;SDS011;3539;47.982;12.238;2022-07-01T02:25:27;5.40;;;3.07;;
6997;SDS011;3539;47.982;12.238;2022-07-01T02:27:53;4.13;;;3.30;;
6997;SDS011;3539;47.982;12.238;2022-07-01T02:30:22;4.47;;;3.30;;
6997;SDS011;3539;47.982;12.238;2022-07-01T02:32:48;5.93;;;3.30;;
6997;SDS011;3539;47.982;12.238;2022-07-01T02:35:15;3.17;;;2.87;;
6997;SDS011;3539;47.982;12.238;2022-07-01T02:37:42;3.70;;;2.97;;
6997;SDS011;3539;47.982;12.238;2022-07-01T02:40:09;3.23;;;2.77;;
6997;SDS011;3539;47.982;12.238;2022-07-01T02:42:37;4.80;;;2.60;;
6997;SDS011;3539;47.982;12.238;2022-07-01T02:45:05;3.10;;;2.50;;
6997;SDS011;3539;47.982;12.238;2022-07-01T02:47:34;6.90;;;2.90;;
6997;SDS011;3539;47.982;12.238;2022-07-01T02:50:02;3.70;;;2.53;;
6997;SDS011;3539;47.982;12.238;2022-07-01T02:52:40;5.57;;;2.67;;
6997;SDS011;3539;47.982;12.238;2022-07-01T02:55:10;3.73;;;2.40;;
6997;SDS011;3539;47.982;12.238;2022-07-01T02:57:38;2.80;;;2.37;;
6997;SDS011;3539;47.982;12.238;2022-07-01T03:00:05;3.43;;;2.40;;
6997;SDS011;3539;47.982;12.238;2022-07-01T03:02:35;5.00;;;2.30;;
6997;SDS011;3539;47.982;12.238;2022-07-01T03:05:02;2.70;;;2.20;;
6997;SDS011;3539;47.982;12.238;2022-07-01T03:07:29;2.63;;;2.00;;
6997;SDS011;3539;47.982;12.238;2022-07-01T03:09:56;2.00;;;1.80;;
6997;SDS011;3539;47.982;12.238;2022-07-01T03:12:23;1.70;;;1.60;;
6997;SDS011;3539;47.982;12.238;2022-07-01T03:14:53;3.47;;;1.80;;
6997;SDS011;3539;47.982;12.238;2022-07-01T03:17:21;2.17;;;1.60;;
6997;SDS011;3539;47.982;12.238;2022-07-01T03:19:49;3.53;;;1.80;;
6997;SDS011;3539;47.982;12.238;2022-07-01T03:22:18;2.47;;;1.70;;
6997;SDS011;3539;47.982;12.238;2022-07-01T03:24:45;1.83;;;1.60;;
6997;SDS011;3539;47.982;12.238;2022-07-01T03:27:11;1.57;;;1.47;;
6997;SDS011;3539;47.982;12.238;2022-07-01T03:29:38;2.93;;;1.67;;
6997;SDS011;3539;47.982;12.238;2022-07-01T03:32:05;2.33;;;1.67;;
6997;SDS011;3539;47.982;12.238;2022-07-01T03:34:34;1.80;;;1.63;;
6997;SDS011;3539;47.982;12.238;2022-07-01T03:37:02;1.90;;;1.70;;
6997;SDS011;3539;47.982;12.238;2022-07-01T03:39:29;2.77;;;1.67;;
6997;SDS011;3539;47.982;12.238;2022-07-01T03:41:56;2.63;;;1.67;;
6997;SDS011;3539;47.982;12.238;2022-07-01T03:44:23;2.23;;;1.70;;
6997;SDS011;3539;47.982;12.238;2022-07-01T03:46:49;3.30;;;1.60;;
6997;SDS011;3539;47.982;12.238;2022-07-01T03:49:16;2.30;;;1.40;;
6997;SDS011;3539;47.982;12.238;2022-07-01T03:51:43;1.73;;;1.63;;
6997;SDS011;3539;47.982;12.238;2022-07-01T03:54:11;1.60;;;1.50;;
6997;SDS011;3539;47.982;12.238;2022-07-01T03:56:56;1.47;;;1.37;;
6997;SDS011;3539;47.982;12.238;2022-07-01T03:59:23;1.57;;;1.47;;
6997;SDS011;3539;47.982;12.238;2022-07-01T04:01:50;1.40;;;1.30;;
6997;SDS011;3539;47.982;12.238;2022-07-01T04:04:16;2.03;;;1.50;;
6997;SDS011;3539;47.982;12.238;2022-07-01T04:06:44;1.77;;;1.60;;
6997;SDS011;3539;47.982;12.238;2022-07-01T04:09:13;2.77;;;1.70;;
6997;SDS011;3539;47.982;12.238;2022-07-01T04:11:41;1.63;;;1.53;;
6997;SDS011;3539;47.982;12.238;2022-07-01T04:14:08;2.30;;;1.47;;
6997;SDS011;3539;47.982;12.238;2022-07-01T04:16:35;1.70;;;1.60;;
6997;SDS011;3539;47.982;12.238;2022-07-01T04:19:03;2.07;;;1.47;;
6997;SDS011;3539;47.982;12.238;2022-07-01T04:21:30;2.87;;;1.40;;
6997;SDS011;3539;47.982;12.238;2022-07-01T04:24:16;1.40;;;1.30;;
6997;SDS011;3539;47.982;12.238;2022-07-01T04:26:43;1.60;;;1.50;;
6997;SDS011;3539;47.982;12.238;2022-07-01T04:29:10;1.50;;;1.40;;
6997;SDS011;3539;47.982;12.238;2022-07-01T04:31:37;1.67;;;1.57;;
6997;SDS011;3539;47.982;12.238;2022-07-01T04:34:04;3.10;;;1.70;;
6997;SDS011;3539;47.982;12.238;2022-07-01T04:36:31;1.47;;;1.37;;
6997;SDS011;3539;47.982;12.238;2022-07-01T04:38:58;1.90;;;1.47;;
6997;SDS011;3539;47.982;12.238;2022-07-01T04:41:26;1.60;;;1.50;;
6997;SDS011;3539;47.982;12.238;2022-07-01T04:44:10;2.30;;;1.80;;
6997;SDS011;3539;47.982;12.238;2022-07-01T04:46:40;2.10;;;1.60;;
6997;SDS011;3539;47.982;12.238;2022-07-01T04:49:07;2.03;;;1.50;;
6997;SDS011;3539;47.982;12.238;2022-07-01T04:51:33;1.70;;;1.53;;
6997;SDS011;3539;47.982;12.238;2022-07-01T04:54:00;1.40;;;1.30;;
6997;SDS011;3539;47.982;12.238;2022-07-01T04:56:28;1.50;;;1.40;;
6997;SDS011;3539;47.982;12.238;2022-07-01T04:58:56;1.77;;;1.60;;
6997;SDS011;3539;47.982;12.238;2022-07-01T05:01:23;1.50;;;1.40;;
6997;SDS011;3539;47.982;12.238;2022-07-01T05:03:50;2.13;;;1.50;;
6997;SDS011;3539;47.982;12.238;2022-07-01T05:06:17;1.73;;;1.40;;
6997;SDS011;3539;47.982;12.238;2022-07-01T05:08:44;1.60;;;1.50;;
6997;SDS011;3539;47.982;12.238;2022-07-01T05:11:11;1.60;;;1.40;;
6997;SDS011;3539;47.982;12.238;2022-07-01T05:13:39;1.17;;;1.13;;
6997;SDS011;3539;47.982;12.238;2022-07-01T05:16:06;1.50;;;1.40;;
6997;SDS011;3539;47.982;12.238;2022-07-01T05:18:35;1.40;;;1.30;;
6997;SDS011;3539;47.982;12.238;2022-07-01T05:21:19;2.60;;;1.30;;
6997;SDS011;3539;47.982;12.238;2022-07-01T05:24:04;1.30;;;1.20;;
6997;SDS011;3539;47.982;12.238;2022-07-01T05:26:31;1.30;;;1.20;;
6997;SDS011;3539;47.982;12.238;2022-07-01T05:28:59;7.23;;;1.60;;
6997;SDS011;3539;47.982;12.238;2022-07-01T05:31:26;1.50;;;1.40;;
6997;SDS011;3539;47.982;12.238;2022-07-01T05:33:53;3.27;;;1.33;;
6997;SDS011;3539;47.982;12.238;2022-07-01T05:36:20;1.30;;;1.20;;
6997;SDS011;3539;47.982;12.238;2022-07-01T05:38:46;2.17;;;1.40;;
6997;SDS011;3539;47.982;12.238;2022-07-01T05:41:13;3.03;;;2.20;;
6997;SDS011;3539;47.982;12.238;2022-07-01T05:43:40;2.60;;;2.00;;
6997;SDS011;3539;47.982;12.238;2022-07-01T05:46:09;2.30;;;2.07;;
6997;SDS011;3539;47.982;12.238;2022-07-01T05:48:36;1.90;;;1.70;;
6997;SDS011;3539;47.982;12.238;2022-07-01T05:51:02;1.97;;;1.53;;
6997;SDS011;3539;47.982;12.238;2022-07-01T05:53:29;1.60;;;1.50;;
6997;SDS011;3539;47.982;12.238;2022-07-01T05:55:56;1.30;;;1.20;;
6997;SDS011;3539;47.982;12.238;2022-07-01T05:58:22;1.23;;;1.13;;
6997;SDS011;3539;47.982;12.238;2022-07-01T06:00:49;1.50;;;1.37;;
6997;SDS011;3539;47.982;12.238;2022-07-01T06:03:17;1.63;;;1.20;;
6997;SDS011;3539;47.982;12.238;2022-07-01T06:05:45;4.60;;;1.43;;
6997;SDS011;3539;47.982;12.238;2022-07-01T06:08:11;1.30;;;1.20;;
6997;SDS011;3539;47.982;12.238;2022-07-01T06:10:38;1.40;;;1.30;;
6997;SDS011;3539;47.982;12.238;2022-07-01T06:13:05;1.60;;;1.50;;
6997;SDS011;3539;47.982;12.238;2022-07-01T06:15:32;1.80;;;1.40;;
6997;SDS011;3539;47.982;12.238;2022-07-01T06:18:00;1.90;;;1.40;;
6997;SDS011;3539;47.982;12.238;2022-07-01T06:20:28;1.30;;;1.20;;
6997;SDS011;3539;47.982;12.238;2022-07-01T06:22:55;1.27;;;1.17;;
6997;SDS011;3539;47.982;12.238;2022-07-01T06:25:23;1.53;;;1.30;;
6997;SDS011;3539;47.982;12.238;2022-07-01T06:27:49;1.40;;;1.30;;
6997;SDS011;3539;47.982;12.238;2022-07-01T06:30:16;2.53;;;1.40;;
6997;SDS011;3539;47.982;12.238;2022-07-01T06:32:43;1.40;;;1.30;;
6997;SDS011;3539;47.982;12.238;2022-07-01T06:35:10;1.43;;;1.33;;
6997;SDS011;3539;47.982;12.238;2022-07-01T06:37:38;1.60;;;1.30;;
6997;SDS011;3539;47.982;12.238;2022-07-01T06:40:05;1.67;;;1.20;;
6997;SDS011;3539;47.982;12.238;2022-07-01T06:42:33;1.13;;;1.03;;
6997;SDS011;3539;47.982;12.238;2022-07-01T06:45:00;1.30;;;1.20;;
6997;SDS011;3539;47.982;12.238;2022-07-01T06:47:27;1.20;;;1.10;;
6997;SDS011;3539;47.982;12.238;2022-07-01T06:49:53;1.67;;;1.40;;
6997;SDS011;3539;47.982;12.238;2022-07-01T06:52:20;1.83;;;1.40;;
6997;SDS011;3539;47.982;12.238;2022-07-01T06:54:48;1.53;;;1.10;;
6997;SDS011;3539;47.982;12.238;2022-07-01T06:57:15;1.20;;;1.17;;
6997;SDS011;3539;47.982;12.238;2022-07-01T06:59:42;1.33;;;1.23;;
6997;SDS011;3539;47.982;12.238;2022-07-01T07:02:09;1.30;;;1.20;;
6997;SDS011;3539;47.982;12.238;2022-07-01T07:04:35;1.00;;;1.00;;
6997;SDS011;3539;47.982;12.238;2022-07-01T07:07:03;1.33;;;1.23;;
6997;SDS011;3539;47.982;12.238;2022-07-01T07:09:30;1.17;;;1.07;;
6997;SDS011;3539;47.982;12.238;2022-07-01T07:11:58;1.53;;;1.20;;
6997;SDS011;3539;47.982;12.238;2022-07-01T07:14:25;2.27;;;1.10;;
6997;SDS011;3539;47.982;12.238;2022-07-01T07:16:51;1.63;;;1.30;;
6997;SDS011;3539;47.982;12.238;2022-07-01T07:19:20;1.17;;;1.07;;
6997;SDS011;3539;47.982;12.238;2022-07-01T07:21:46;1.50;;;1.40;;
6997;SDS011;3539;47.982;12.238;2022-07-01T07:24:13;1.53;;;1.20;;
6997;SDS011;3539;47.982;12.238;2022-07-01T07:26:40;1.57;;;1.30;;
6997;SDS011;3539;47.982;12.238;2022-07-01T07:29:08;1.40;;;1.30;;
6997;SDS011;3539;47.982;12.238;2022-07-01T07:31:35;1.20;;;1.10;;
6997;SDS011;3539;47.982;12.238;2022-07-01T07:34:01;1.40;;;1.30;;
6997;SDS011;3539;47.982;12.238;2022-07-01T07:36:28;1.10;;;1.10;;
6997;SDS011;3539;47.982;12.238;2022-07-01T07:38:55;1.43;;;1.27;;
6997;SDS011;3539;47.982;12.238;2022-07-01T07:41:22;1.93;;;1.40;;
6997;SDS011;3539;47.982;12.238;2022-07-01T07:43:48;1.40;;;1.30;;
6997;SDS011;3539;47.982;12.238;2022-07-01T07:46:17;2.70;;;1.40;;
6997;SDS011;3539;47.982;12.238;2022-07-01T07:48:43;1.33;;;1.30;;
6997;SDS011;3539;47.982;12.238;2022-07-01T07:51:10;1.33;;;1.23;;
6997;SDS011;3539;47.982;12.238;2022-07-01T07:53:42;1.20;;;1.10;;
6997;SDS011;3539;47.982;12.238;2022-07-01T07:56:09;1.20;;;1.10;;
6997;SDS011;3539;47.982;12.238;2022-07-01T07:58:35;1.20;;;1.10;;
6997;SDS011;3539;47.982;12.238;2022-07-01T08:01:02;0.90;;;0.90;;
6997;SDS011;3539;47.982;12.238;2022-07-01T08:03:30;1.83;;;1.10;;
6997;SDS011;3539;47.982;12.238;2022-07-01T08:05:59;1.23;;;1.07;;
6997;SDS011;3539;47.982;12.238;2022-07-01T08:08:25;1.20;;;1.10;;
6997;SDS011;3539;47.982;12.238;2022-07-01T08:10:53;1.20;;;1.10;;
6997;SDS011;3539;47.982;12.238;2022-07-01T08:13:19;1.73;;;1.13;;
6997;SDS011;3539;47.982;12.238;2022-07-01T08:15:46;1.47;;;1.20;;
6997;SDS011;3539;47.982;12.238;2022-07-01T08:18:14;1.43;;;1.23;;
6997;SDS011;3539;47.982;12.238;2022-07-01T08:20:43;1.13;;;1.07;;
6997;SDS011;3539;47.982;12.238;2022-07-01T08:23:10;0.90;;;0.90;;
6997;SDS011;3539;47.982;12.238;2022-07-01T08:25:37;1.13;;;1.00;;
6997;SDS011;3539;47.982;12.238;2022-07-01T08:28:04;1.87;;;1.10;;
6997;SDS011;3539;47.982;12.238;2022-07-01T08:30:30;1.60;;;1.30;;
6997;SDS011;3539;47.982;12.238;2022-07-01T08:32:57;1.33;;;1.20;;
6997;SDS011;3539;47.982;12.238;2022-07-01T08:35:25;2.27;;;1.30;;
6997;SDS011;3539;47.982;12.238;2022-07-01T08:37:53;1.47;;;1.20;;
6997;SDS011;3539;47.982;12.238;2022-07-01T08:40:23;2.30;;;1.17;;
6997;SDS011;3539;47.982;12.238;2022-07-01T08:42:50;1.80;;;1.30;;
6997;SDS011;3539;47.982;12.238;2022-07-01T08:45:17;2.83;;;1.30;;
6997;SDS011;3539;47.982;12.238;2022-07-01T08:47:50;1.83;;;1.20;;
6997;SDS011;3539;47.982;12.238;2022-07-01T08:50:17;1.90;;;1.17;;
6997;SDS011;3539;47.982;12.238;2022-07-01T08:52:44;1.47;;;1.37;;
6997;SDS011;3539;47.982;12.238;2022-07-01T08:55:12;1.50;;;1.40;;
6997;SDS011;3539;47.982;12.238;2022-07-01T08:57:39;1.87;;;1.50;;
6997;SDS011;3539;47.982;12.238;2022-07-01T09:00:06;1.47;;;1.27;;
6997;SDS011;3539;47.982;12.238;2022-07-01T09:02:48;1.33;;;1.23;;
6997;SDS011;3539;47.982;12.238;2022-07-01T09:05:23;1.30;;;1.20;;
6997;SDS011;3539;47.982;12.238;2022-07-01T09:07:56;3.73;;;1.10;;
6997;SDS011;3539;47.982;12.238;2022-07-01T09:10:26;1.33;;;1.23;;
6997;SDS011;3539;47.982;12.238;2022-07-01T09:12:56;1.90;;;1.33;;
6997;SDS011;3539;47.982;12.238;2022-07-01T09:15:25;1.50;;;1.40;;
6997;SDS011;3539;47.982;12.238;2022-07-01T09:17:53;1.40;;;1.30;;
6997;SDS011;3539;47.982;12.238;2022-07-01T09:20:24;2.70;;;1.30;;
6997;SDS011;3539;47.982;12.238;2022-07-01T09:22:59;1.40;;;1.30;;
6997;SDS011;3539;47.982;12.238;2022-07-01T09:25:29;2.17;;;1.37;;
6997;SDS011;3539;47.982;12.238;2022-07-01T09:28:06;1.33;;;1.20;;
6997;SDS011;3539;47.982;12.238;2022-07-01T09:30:34;1.83;;;1.50;;
6997;SDS011;3539;47.982;12.238;2022-07-01T09:33:05;1.30;;;1.20;;
6997;SDS011;3539;47.982;12.238;2022-07-01T09:35:36;1.40;;;1.17;;
6997;SDS011;3539;47.982;12.238;2022-07-01T09:38:03;1.27;;;1.10;;
6997;SDS011;3539;47.982;12.238;2022-07-01T09:43:20;1.30;;;1.20;;
6997;SDS011;3539;47.982;12.238;2022-07-01T09:45:52;2.63;;;1.30;;
6997;SDS011;3539;47.982;12.238;2022-07-01T09:48:24;1.50;;;1.40;;
6997;SDS011;3539;47.982;12.238;2022-07-01T09:50:52;1.80;;;1.60;;
6997;SDS011;3539;47.982;12.238;2022-07-01T09:53:19;3.07;;;1.40;;
6997;SDS011;3539;47.982;12.238;2022-07-01T09:55:47;2.67;;;1.30;;
6997;SDS011;3539;47.982;12.238;2022-07-01T09:58:15;1.57;;;1.20;;
6997;SDS011;3539;47.982;12.238;2022-07-01T10:00:42;1.03;;;1.00;;
6997;SDS011;3539;47.982;12.238;2022-07-01T10:03:10;1.43;;;1.10;;
6997;SDS011;3539;47.982;12.238;2022-07-01T10:05:44;2.67;;;1.30;;
6997;SDS011;3539;47.982;12.238;2022-07-01T10:08:17;1.10;;;1.00;;
6997;SDS011;3539;47.982;12.238;2022-07-01T10:10:49;1.87;;;1.10;;
6997;SDS011;3539;47.982;12.238;2022-07-01T10:13:21;1.57;;;1.20;;
6997;SDS011;3539;47.982;12.238;2022-07-01T10:15:50;4.90;;;1.40;;
6997;SDS011;3539;47.982;12.238;2022-07-01T10:18:20;3.40;;;1.33;;
6997;SDS011;3539;47.982;12.238;2022-07-01T10:20:48;1.40;;;1.20;;
6997;SDS011;3539;47.982;12.238;2022-07-01T10:23:15;2.13;;;1.37;;
6997;SDS011;3539;47.982;12.238;2022-07-01T10:25:43;4.03;;;1.50;;
6997;SDS011;3539;47.982;12.238;2022-07-01T10:30:55;1.50;;;1.40;;
6997;SDS011;3539;47.982;12.238;2022-07-01T10:33:38;1.70;;;1.60;;
6997;SDS011;3539;47.982;12.238;2022-07-01T10:36:07;1.60;;;1.50;;
6997;SDS011;3539;47.982;12.238;2022-07-01T10:38:35;2.13;;;1.60;;
6997;SDS011;3539;47.982;12.238;2022-07-01T10:41:54;2.23;;;1.77;;
6997;SDS011;3539;47.982;12.238;2022-07-01T10:44:27;1.97;;;1.60;;
6997;SDS011;3539;47.982;12.238;2022-07-01T10:46:55;1.70;;;1.60;;
6997;SDS011;3539;47.982;12.238;2022-07-01T10:52:23;1.87;;;1.43;;
6997;SDS011;3539;47.982;12.238;2022-07-01T10:54:51;4.17;;;1.60;;
6997;SDS011;3539;47.982;12.238;2022-07-01T10:57:21;2.57;;;1.70;;
6997;SDS011;3539;47.982;12.238;2022-07-01T11:03:07;2.90;;;1.63;;
6997;SDS011;3539;47.982;12.238;2022-07-01T11:05:42;1.87;;;1.70;;
6997;SDS011;3539;47.982;12.238;2022-07-01T11:08:10;2.00;;;1.70;;
6997;SDS011;3539;47.982;12.238;2022-07-01T11:10:38;1.70;;;1.60;;
6997;SDS011;3539;47.982;12.238;2022-07-01T11:13:06;1.93;;;1.83;;
6997;SDS011;3539;47.982;12.238;2022-07-01T11:15:34;2.30;;;1.70;;
6997;SDS011;3539;47.982;12.238;2022-07-01T11:18:01;1.60;;;1.50;;
6997;SDS011;3539;47.982;12.238;2022-07-01T11:20:29;2.73;;;1.80;;
6997;SDS011;3539;47.982;12.238;2022-07-01T11:22:57;2.43;;;1.90;;
6997;SDS011;3539;47.982;12.238;2022-07-01T11:25:24;1.87;;;1.77;;
6997;SDS011;3539;47.982;12.238;2022-07-01T11:27:51;3.50;;;1.80;;
6997;SDS011;3539;47.982;12.238;2022-07-01T11:30:19;1.97;;;1.60;;
6997;SDS011;3539;47.982;12.238;2022-07-01T11:32:48;2.10;;;1.70;;
6997;SDS011;3539;47.982;12.238;2022-07-01T11:35:16;1.53;;;1.43;;
6997;SDS011;3539;47.982;12.238;2022-07-01T11:38:08;2.93;;;2.03;;
6997;SDS011;3539;47.982;12.238;2022-07-01T11:40:54;2.00;;;1.80;;
6997;SDS011;3539;47.982;12.238;2022-07-01T11:43:22;2.13;;;1.93;;
6997;SDS011;3539;47.982;12.238;2022-07-01T11:45:50;1.83;;;1.63;;
6997;SDS011;3539;47.982;12.238;2022-07-01T11:48:31;1.90;;;1.70;;
6997;SDS011;3539;47.982;12.238;2022-07-01T11:51:00;2.03;;;1.73;;
6997;SDS011;3539;47.982;12.238;2022-07-01T11:53:27;3.53;;;1.70;;
6997;SDS011;3539;47.982;12.238;2022-07-01T11:55:54;4.30;;;1.93;;
6997;SDS011;3539;47.982;12.238;2022-07-01T11:58:21;2.27;;;1.70;;
6997;SDS011;3539;47.982;12.238;2022-07-01T12:00:48;3.30;;;1.80;;
6997;SDS011;3539;47.982;12.238;2022-07-01T12:03:28;3.40;;;1.47;;
6997;SDS011;3539;47.982;12.238;2022-07-01T12:05:57;1.93;;;1.40;;
6997;SDS011;3539;47.982;12.238;2022-07-01T12:08:24;2.23;;;1.40;;
6997;SDS011;3539;47.982;12.238;2022-07-01T12:10:51;2.17;;;1.40;;
6997;SDS011;3539;47.982;12.238;2022-07-01T12:13:21;2.73;;;1.20;;
6997;SDS011;3539;47.982;12.238;2022-07-01T12:15:48;3.03;;;1.10;;
6997;SDS011;3539;47.982;12.238;2022-07-01T12:18:16;1.20;;;1.10;;
6997;SDS011;3539;47.982;12.238;2022-07-01T12:20:47;1.17;;;1.07;;
6997;SDS011;3539;47.982;12.238;2022-07-01T12:23:16;1.47;;;1.13;;
6997;SDS011;3539;47.982;12.238;2022-07-01T12:25:47;1.30;;;1.20;;
6997;SDS011;3539;47.982;12.238;2022-07-01T12:28:25;1.50;;;1.40;;
6997;SDS011;3539;47.982;12.238;2022-07-01T12:31:00;1.70;;;1.60;;
6997;SDS011;3539;47.982;12.238;2022-07-01T12:33:27;1.50;;;1.40;;
6997;SDS011;3539;47.982;12.238;2022-07-01T12:35:54;2.27;;;1.53;;
6997;SDS011;3539;47.982;12.238;2022-07-01T12:38:22;1.83;;;1.50;;
6997;SDS011;3539;47.982;12.238;2022-07-01T12:40:49;2.13;;;1.50;;
6997;SDS011;3539;47.982;12.238;2022-07-01T12:43:23;1.50;;;1.40;;
6997;SDS011;3539;47.982;12.238;2022-07-01T12:45:53;3.07;;;1.57;;
6997;SDS011;3539;47.982;12.238;2022-07-01T12:48:20;2.17;;;1.40;;
6997;SDS011;3539;47.982;12.238;2022-07-01T12:50:47;1.30;;;1.20;;
6997;SDS011;3539;47.982;12.238;2022-07-01T12:53:17;1.37;;;1.27;;
6997;SDS011;3539;47.982;12.238;2022-07-01T12:55:47;1.97;;;1.30;;
6997;SDS011;3539;47.982;12.238;2022-07-01T12:58:14;1.63;;;1.53;;
6997;SDS011;3539;47.982;12.238;2022-07-01T13:00:43;1.50;;;1.40;;
6997;SDS011;3539;47.982;12.238;2022-07-01T13:03:10;2.10;;;1.70;;
6997;SDS011;3539;47.982;12.238;2022-07-01T13:05:37;2.20;;;1.73;;
6997;SDS011;3539;47.982;12.238;2022-07-01T13:08:05;2.00;;;1.90;;
6997;SDS011;3539;47.982;12.238;2022-07-01T13:10:33;2.10;;;1.90;;
6997;SDS011;3539;47.982;12.238;2022-07-01T13:13:01;3.20;;;1.80;;
6997;SDS011;3539;47.982;12.238;2022-07-01T13:15:29;3.97;;;2.60;;
6997;SDS011;3539;47.982;12.238;2022-07-01T13:17:56;2.60;;;1.77;;
6997;SDS011;3539;47.982;12.238;2022-07-01T13:20:23;2.10;;;2.00;;
6997;SDS011;3539;47.982;12.238;2022-07-01T13:22:50;3.73;;;1.60;;
6997;SDS011;3539;47.982;12.238;2022-07-01T13:25:18;1.93;;;1.70;;
6997;SDS011;3539;47.982;12.238;2022-07-01T13:27:45;3.17;;;1.70;;
6997;SDS011;3539;47.982;12.238;2022-07-01T13:30:14;3.33;;;2.30;;
6997;SDS011;3539;47.982;12.238;2022-07-01T13:32:41;3.17;;;2.50;;
6997;SDS011;3539;47.982;12.238;2022-07-01T13:35:08;1.93;;;1.83;;
6997;SDS011;3539;47.982;12.238;2022-07-01T13:37:36;2.43;;;1.90;;
6997;SDS011;3539;47.982;12.238;2022-07-01T13:40:03;2.27;;;2.10;;
6997;SDS011;3539;47.982;12.238;2022-07-01T13:42:31;2.10;;;2.00;;
6997;SDS011;3539;47.982;12.238;2022-07-01T13:44:57;2.70;;;1.97;;
6997;SDS011;3539;47.982;12.238;2022-07-01T13:47:25;3.33;;;2.30;;
6997;SDS011;3539;47.982;12.238;2022-07-01T13:49:52;2.20;;;2.10;;
6997;SDS011;3539;47.982;12.238;2022-07-01T13:52:19;2.23;;;1.90;;
6997;SDS011;3539;47.982;12.238;2022-07-01T13:54:46;2.03;;;1.93;;
6997;SDS011;3539;47.982;12.238;2022-07-01T13:57:12;2.30;;;2.10;;
6997;SDS011;3539;47.982;12.238;2022-07-01T13:59:39;2.30;;;2.10;;
6997;SDS011;3539;47.982;12.238;2022-07-01T14:02:06;2.10;;;1.90;;
6997;SDS011;3539;47.982;12.238;2022-07-01T14:04:35;2.87;;;1.80;;
6997;SDS011;3539;47.982;12.238;2022-07-01T14:07:03;2.27;;;2.00;;
6997;SDS011;3539;47.982;12.238;2022-07-01T14:09:30;2.40;;;2.10;;
6997;SDS011;3539;47.982;12.238;2022-07-01T14:11:57;2.20;;;2.00;;
6997;SDS011;3539;47.982;12.238;2022-07-01T14:14:24;2.00;;;1.90;;
6997;SDS011;3539;47.982;12.238;2022-07-01T14:16:51;2.43;;;2.23;;
6997;SDS011;3539;47.982;12.238;2022-07-01T14:19:18;2.90;;;2.50;;
6997;SDS011;3539;47.982;12.238;2022-07-01T14:21:46;2.70;;;2.50;;
6997;SDS011;3539;47.982;12.238;2022-07-01T14:24:12;2.83;;;2.63;;
6997;SDS011;3539;47.982;12.238;2022-07-01T14:26:39;3.03;;;2.70;;
6997;SDS011;3539;47.982;12.238;2022-07-01T14:29:06;5.23;;;2.80;;
6997;SDS011;3539;47.982;12.238;2022-07-01T14:31:33;5.70;;;2.50;;
6997;SDS011;3539;47.982;12.238;2022-07-01T14:33:59;2.43;;;2.23;;
6997;SDS011;3539;47.982;12.238;2022-07-01T14:36:26;2.63;;;2.40;;
6997;SDS011;3539;47.982;12.238;2022-07-01T14:38:54;2.73;;;2.53;;
6997;SDS011;3539;47.982;12.238;2022-07-01T14:41:21;3.10;;;2.80;;
6997;SDS011;3539;47.982;12.238;2022-07-01T14:43:48;7.33;;;6.63;;
6997;SDS011;3539;47.982;12.238;2022-07-01T14:46:14;5.57;;;3.73;;
6997;SDS011;3539;47.982;12.238;2022-07-01T14:48:41;5.00;;;4.47;;
6997;SDS011;3539;47.982;12.238;2022-07-01T14:51:08;3.20;;;2.90;;
6997;SDS011;3539;47.982;12.238;2022-07-01T14:53:35;6.13;;;5.53;;
6997;SDS011;3539;47.982;12.238;2022-07-01T14:56:09;3.57;;;2.63;;
6997;SDS011;3539;47.982;12.238;2022-07-01T14:58:36;3.20;;;2.90;;
6997;SDS011;3539;47.982;12.238;2022-07-01T15:01:02;2.43;;;2.20;;
6997;SDS011;3539;47.982;12.238;2022-07-01T15:03:29;2.30;;;2.10;;
6997;SDS011;3539;47.982;12.238;2022-07-01T15:05:56;2.80;;;2.43;;
6997;SDS011;3539;47.982;12.238;2022-07-01T15:08:23;3.10;;;2.53;;
6997;SDS011;3539;47.982;12.238;2022-07-01T15:10:49;2.20;;;2.00;;
6997;SDS011;3539;47.982;12.238;2022-07-01T15:13:17;1.93;;;1.83;;
6997;SDS011;3539;47.982;12.238;2022-07-01T15:15:44;2.10;;;2.00;;
6997;SDS011;3539;47.982;12.238;2022-07-01T15:18:11;2.40;;;2.20;;